• Join FlightAware (Why Join?)
  • Login
  • US Flag 
10:52AM EDT


 

Airport Tracker/Info


-or-


 

Live Flight TrackerFlight Track Log ✈ N132H ✈ 10-Jul-2013 ✈ KBED - KJRA

Flight Track Log - Related Links

Times and Time Zones

All times are in EDT time to prevent confusion due to time zone crossing. See the N132H flight status page for this flight to view local times or setup timezone preferences in your user account.

Time Position Orientation Groundspeed Altitude Reporting Facility
EDT Latitude Longitude Course Direction KTS MPH feet Rate Location/Type
09:21AM 42.4500 -71.3167 216° Southwest 113 130 800  Level KA90
09:21AM 42.4333 -71.3333 216° Southwest 99 114 1,400 900 Climbing KA90
09:22AM 42.4167 -71.3500 216° Southwest 102 117 2,300 900 Climbing KA90
09:23AM 42.3833 -71.3667 200° South 113 130 3,300 900 Climbing KA90
09:24AM 42.3667 -71.3833 216° Southwest 95 109 4,300 900 Climbing KA90
09:25AM 42.3333 -71.3833 180° South 98 113 5,300 780 Climbing KA90
09:26AM 42.3167 -71.4167 236° Southwest 108 124 5,800 420 Climbing KA90
09:27AM 42.3000 -71.4500 236° Southwest 117 135 6,100 120 Climbing KA90
09:28AM 42.2756 -71.4917 232° Southwest 128 147 6,100  Level Boston Center
09:30AM 42.2469 -71.5483 236° Southwest 129 148 6,100  Level Boston Center
09:31AM 42.2242 -71.5850 230° Southwest 131 151 6,100  Level Boston Center
09:32AM 42.2036 -71.6244 235° Southwest 130 150 6,100  Level Boston Center
09:33AM 42.1936 -71.6667 252° West 127 146 6,100  Level Boston Center
09:34AM 42.1814 -71.7117 250° West 128 147 6,100  Level Boston Center
09:35AM 42.1711 -71.7594 254° West 129 148 6,100  Level Boston Center
09:36AM 42.1589 -71.8072 251° West 128 147 6,100  Level Boston Center
09:37AM 42.1447 -71.8464 244° Southwest 124 143 6,100  Level Boston Center
09:38AM 42.1178 -71.8803 223° Southwest 129 148 6,100  Level Boston Center
09:39AM 42.0908 -71.9114 221° Southwest 130 150 6,100  Level Boston Center
09:40AM 42.0639 -71.9450 223° Southwest 131 151 6,100 -60 Level Boston Center
09:41AM 42.0369 -71.9817 225° Southwest 130 150 6,000 -60 Descending Boston Center
09:42AM 42.0142 -72.0181 230° Southwest 130 150 6,000  Level Boston Center
09:43AM 41.9892 -72.0547 227° Southwest 131 151 6,000  Level Boston Center
09:44AM 41.9642 -72.0911 227° Southwest 128 147 6,000  Level Boston Center
09:45AM 41.9394 -72.1247 225° Southwest 130 150 6,000  Level Boston Center
09:46AM 41.9167 -72.1667 234° Southwest 128 147 6,000  Level Boston Center
09:47AM 41.8917 -72.2003 225° Southwest 129 148 6,000  Level Boston Center
09:48AM 41.8667 -72.2339 225° Southwest 128 147 6,000  Level Boston Center
09:49AM 41.8417 -72.2700 227° Southwest 127 146 6,000  Level Boston Center
09:50AM 41.8147 -72.3064 225° Southwest 129 148 6,000  Level Boston Center
09:51AM 41.7897 -72.3397 225° Southwest 129 148 6,000  Level Boston Center
09:52AM 41.7669 -72.3761 230° Southwest 127 146 6,000  Level Boston Center
09:53AM 41.7397 -72.4094 222° Southwest 130 150 6,000 -60 Level Boston Center
09:54AM 41.7169 -72.4428 228° Southwest 128 147 5,900  Descending Boston Center
09:55AM 41.6856 -72.4706 213° Southwest 132 152 6,000  Climbing Boston Center
09:56AM 41.6500 -72.4872 199° South 133 153 6,000  Level Boston Center
09:57AM 41.6147 -72.5039 199° South 133 153 6,000  Level Boston Center
09:59AM 41.5333 -72.5500 203° Southwest 130 150 6,000  Level New York TRACON
10:00AM 41.5000 -72.5667 201° Southwest 133 153 6,000  Level New York TRACON
10:01AM 41.4833 -72.6000 236° Southwest 133 153 6,000  Level New York TRACON
10:02AM 41.4500 -72.6500 228° Southwest 132 152 6,000  Level New York TRACON
10:03AM 41.4333 -72.6833 236° Southwest 127 146 6,000  Level New York TRACON
10:04AM 41.4167 -72.7167 236° Southwest 127 146 6,000  Level New York TRACON
10:05AM 41.3833 -72.7500 217° Southwest 128 147 6,000  Level New York TRACON
10:06AM 41.3667 -72.8000 246° West 127 146 6,000  Level New York TRACON
10:07AM 41.3500 -72.8333 236° Southwest 128 147 6,000 -120 Level New York TRACON
10:08AM 41.3333 -72.8667 236° Southwest 133 153 5,800 -480 Descending New York TRACON
10:09AM 41.3000 -72.9000 217° Southwest 141 162 5,200 -600 Descending New York TRACON
10:10AM 41.2667 -72.9500 228° Southwest 138 159 4,600 -540 Descending New York TRACON
10:11AM 41.2500 -72.9833 236° Southwest 138 159 4,100 -360 Descending New York TRACON
10:12AM 41.2333 -73.0167 236° Southwest 133 153 4,000  Descending New York TRACON
10:13AM 41.2000 -73.0500 217° Southwest 127 146 4,100  Climbing New York TRACON
10:14AM 41.1833 -73.0833 236° Southwest 131 151 4,100  Level New York TRACON
10:15AM 41.1500 -73.1333 228° Southwest 129 148 4,100  Level New York TRACON
10:16AM 41.1333 -73.1667 236° Southwest 129 148 4,100  Level New York TRACON
10:17AM 41.1167 -73.2000 236° Southwest 128 147 4,100  Level New York TRACON
10:18AM 41.1000 -73.2500 246° West 128 147 4,100 -60 Level New York TRACON
10:19AM 41.0833 -73.2833 236° Southwest 130 150 4,000 -300 Descending New York TRACON
10:20AM 41.0667 -73.3167 236° Southwest 138 159 3,500 -540 Descending New York TRACON
10:21AM 41.0333 -73.3667 229° Southwest 142 163 3,000 -600 Descending New York TRACON
10:22AM 41.0167 -73.4000 236° Southwest 146 168 2,400 -600 Descending New York TRACON